Terminal Aerodrome Forecast
Issued by NWS Melbourne, FL

Home | Current Version | Previous Version | Text Only | Print | Product List | Glossary On
Versions: 1 2 3 4 5 6 7 8 9 10 11 12 13 14 15 16
000
FTUS42 KMLB 021129
TAFDAB
TAF
KDAB 021129Z 0212/0312 00000KT P6SM FEW025 SCT120 OVC250
     FM021400 24005KT P6SM SCT025 BKN060 OVC250
     FM021800 11006KT P6SM VCTS SCT030CB OVC050
      TEMPO 0218/0220 3SM TSRA BKN020CB OVC040
     FM022000 19005KT P6SM VCTS SCT025CB OVC050
      TEMPO 0220/0223 VRB15G25KT 2SM TSRA BKN015CB OVC030
     FM030000 24003KT P6SM SCT020 OVC040=

USA.gov is the U.S. government's official web portal to all federal, state and local government web resources and services.